Terminal Aerodrome Forecast
Issued by NWS Albany, NY

Home | Current Version | Previous Version | Text Only | Print | Product List | Glossary On
Versions: 1 2 3 4 5 6 7 8 9 10 11 12 13 14 15 16 17 18 19 20 21 22
000
FTUS41 KALY 201100
TAFPOU
TAF
KPOU 201133Z 2012/2112 00000KT P6SM BKN130
     FM201500 22006KT P6SM BKN130
     FM202300 00000KT P6SM OVC100
     FM210900 00000KT P6SM VCSH OVC060=

USA.gov is the U.S. government's official web portal to all federal, state and local government web resources and services.